sensor_id;sensor_type;location;lat;lon;timestamp;pressure;altitude;pressure_sealevel;temperature;humidity
77583;BME280;66726;52.388;9.986;2023-05-10T00:02:27;100128.03;;;14.77;49.01
77583;BME280;66726;52.388;9.986;2023-05-10T00:04:59;100139.94;;;14.48;49.92
77583;BME280;66726;52.388;9.986;2023-05-10T00:07:31;100140.53;;;14.43;49.92
77583;BME280;66726;52.388;9.986;2023-05-10T00:10:03;100131.03;;;14.47;50.15
77583;BME280;66726;52.388;9.986;2023-05-10T00:12:36;100118.63;;;14.53;50.59
77583;BME280;66726;52.388;9.986;2023-05-10T00:15:10;100126.09;;;14.57;50.16
77583;BME280;66726;52.388;9.986;2023-05-10T00:17:42;100121.13;;;14.54;50.12
77583;BME280;66726;52.388;9.986;2023-05-10T00:20:15;100105.38;;;14.58;50.47
77583;BME280;66726;52.388;9.986;2023-05-10T00:22:48;100102.88;;;14.56;50.60
77583;BME280;66726;52.388;9.986;2023-05-10T00:25:20;100110.75;;;14.51;50.45
77583;BME280;66726;52.388;9.986;2023-05-10T00:27:54;100110.75;;;14.51;50.54
77583;BME280;66726;52.388;9.986;2023-05-10T00:30:27;100106.63;;;14.55;50.57
77583;BME280;66726;52.388;9.986;2023-05-10T00:32:59;100106.38;;;14.50;51.21
77583;BME280;66726;52.388;9.986;2023-05-10T00:35:31;100096.63;;;14.49;51.40
77583;BME280;66726;52.388;9.986;2023-05-10T00:38:03;100103.28;;;14.53;51.10
77583;BME280;66726;52.388;9.986;2023-05-10T00:40:37;100101.00;;;14.50;51.50
77583;BME280;66726;52.388;9.986;2023-05-10T00:43:10;100102.00;;;14.43;51.73
77583;BME280;66726;52.388;9.986;2023-05-10T00:45:43;100093.09;;;14.42;52.06
77583;BME280;66726;52.388;9.986;2023-05-10T00:48:16;100090.59;;;14.34;52.47
77583;BME280;66726;52.388;9.986;2023-05-10T00:50:48;100087.88;;;14.34;52.42
77583;BME280;66726;52.388;9.986;2023-05-10T00:53:21;100094.25;;;14.33;52.36
77583;BME280;66726;52.388;9.986;2023-05-10T00:55:53;100085.34;;;14.33;52.90
77583;BME280;66726;52.388;9.986;2023-05-10T00:58:26;100082.50;;;14.34;52.88
77583;BME280;66726;52.388;9.986;2023-05-10T01:01:00;100079.94;;;14.26;52.50
77583;BME280;66726;52.388;9.986;2023-05-10T01:03:33;100078.28;;;14.25;52.94
77583;BME280;66726;52.388;9.986;2023-05-10T01:06:06;100081.78;;;14.26;53.14
77583;BME280;66726;52.388;9.986;2023-05-10T01:08:40;100074.91;;;14.10;52.51
77583;BME280;66726;52.388;9.986;2023-05-10T01:11:12;100079.47;;;14.16;53.24
77583;BME280;66726;52.388;9.986;2023-05-10T01:13:50;100073.06;;;14.17;52.76
77583;BME280;66726;52.388;9.986;2023-05-10T01:16:24;100073.22;;;14.09;53.10
77583;BME280;66726;52.388;9.986;2023-05-10T01:18:56;100067.63;;;14.04;53.16
77583;BME280;66726;52.388;9.986;2023-05-10T01:21:41;100064.69;;;13.99;53.73
77583;BME280;66726;52.388;9.986;2023-05-10T01:31:08;100072.28;;;13.89;54.15
77583;BME280;66726;52.388;9.986;2023-05-10T01:33:57;100067.31;;;13.86;54.16
77583;BME280;66726;52.388;9.986;2023-05-10T01:36:35;100069.00;;;13.93;53.72
77583;BME280;66726;52.388;9.986;2023-05-10T01:39:20;100069.41;;;13.90;54.75
77583;BME280;66726;52.388;9.986;2023-05-10T01:42:02;100075.34;;;13.79;54.42
77583;BME280;66726;52.388;9.986;2023-05-10T01:44:42;100082.19;;;13.82;54.70
77583;BME280;66726;52.388;9.986;2023-05-10T01:47:31;100080.03;;;13.70;55.46
77583;BME280;66726;52.388;9.986;2023-05-10T01:50:14;100077.19;;;13.79;54.47
77583;BME280;66726;52.388;9.986;2023-05-10T01:52:53;100076.28;;;13.65;54.87
77583;BME280;66726;52.388;9.986;2023-05-10T01:55:30;100071.06;;;13.63;55.27
77583;BME280;66726;52.388;9.986;2023-05-10T01:58:08;100070.16;;;13.50;55.94
77583;BME280;66726;52.388;9.986;2023-05-10T02:00:46;100072.50;;;13.59;55.14
77583;BME280;66726;52.388;9.986;2023-05-10T02:03:23;100077.91;;;13.59;55.83
77583;BME280;66726;52.388;9.986;2023-05-10T02:05:58;100076.69;;;13.41;56.58
77583;BME280;66726;52.388;9.986;2023-05-10T02:08:32;100072.00;;;13.49;55.48
77583;BME280;66726;52.388;9.986;2023-05-10T02:11:07;100076.75;;;13.47;56.37
77583;BME280;66726;52.388;9.986;2023-05-10T02:13:42;100071.81;;;13.51;56.60
77583;BME280;66726;52.388;9.986;2023-05-10T02:16:18;100071.19;;;13.49;56.41
77583;BME280;66726;52.388;9.986;2023-05-10T02:18:52;100070.09;;;13.43;55.86
77583;BME280;66726;52.388;9.986;2023-05-10T02:21:26;100065.81;;;13.49;56.32
77583;BME280;66726;52.388;9.986;2023-05-10T02:23:59;100064.97;;;13.48;55.91
77583;BME280;66726;52.388;9.986;2023-05-10T02:26:34;100067.00;;;13.46;56.29
77583;BME280;66726;52.388;9.986;2023-05-10T02:29:08;100070.34;;;13.48;56.79
77583;BME280;66726;52.388;9.986;2023-05-10T02:31:42;100068.28;;;13.50;56.79
77583;BME280;66726;52.388;9.986;2023-05-10T02:34:15;100067.00;;;13.46;57.24
77583;BME280;66726;52.388;9.986;2023-05-10T02:36:48;100065.38;;;13.45;56.82
77583;BME280;66726;52.388;9.986;2023-05-10T02:39:23;100064.09;;;13.41;57.21
77583;BME280;66726;52.388;9.986;2023-05-10T02:41:58;100071.16;;;13.42;56.67
77583;BME280;66726;52.388;9.986;2023-05-10T02:44:35;100064.50;;;13.38;57.32
77583;BME280;66726;52.388;9.986;2023-05-10T02:47:07;100064.72;;;13.43;57.26
77583;BME280;66726;52.388;9.986;2023-05-10T02:49:40;100060.13;;;13.37;57.31
77583;BME280;66726;52.388;9.986;2023-05-10T02:52:19;100062.75;;;13.31;57.81
77583;BME280;66726;52.388;9.986;2023-05-10T02:54:58;100062.75;;;13.31;58.06
77583;BME280;66726;52.388;9.986;2023-05-10T02:57:38;100051.97;;;13.24;57.57
77583;BME280;66726;52.388;9.986;2023-05-10T03:00:13;100054.00;;;13.22;58.18
77583;BME280;66726;52.388;9.986;2023-05-10T03:02:46;100053.63;;;13.25;57.55
77583;BME280;66726;52.388;9.986;2023-05-10T03:05:18;100052.13;;;13.23;57.52
77583;BME280;66726;52.388;9.986;2023-05-10T03:07:51;100055.66;;;13.23;58.20
77583;BME280;66726;52.388;9.986;2023-05-10T03:10:28;100053.41;;;13.27;57.73
77583;BME280;66726;52.388;9.986;2023-05-10T03:13:10;100059.75;;;13.19;57.68
77583;BME280;66726;52.388;9.986;2023-05-10T03:15:56;100060.53;;;13.13;57.69
77583;BME280;66726;52.388;9.986;2023-05-10T03:18:36;100056.19;;;13.12;57.93
77583;BME280;66726;52.388;9.986;2023-05-10T03:21:13;100055.63;;;13.02;58.59
77583;BME280;66726;52.388;9.986;2023-05-10T03:23:55;100058.31;;;13.02;58.41
77583;BME280;66726;52.388;9.986;2023-05-10T03:26:31;100053.34;;;12.99;58.43
77583;BME280;66726;52.388;9.986;2023-05-10T03:29:05;100051.25;;;12.94;58.08
77583;BME280;66726;52.388;9.986;2023-05-10T03:31:38;100057.81;;;12.92;58.57
77583;BME280;66726;52.388;9.986;2023-05-10T03:34:10;100059.44;;;12.86;58.49
77583;BME280;66726;52.388;9.986;2023-05-10T03:36:42;100052.84;;;12.89;58.56
77583;BME280;66726;52.388;9.986;2023-05-10T03:39:15;100057.06;;;12.98;58.71
77583;BME280;66726;52.388;9.986;2023-05-10T03:41:47;100060.13;;;12.95;58.68
77583;BME280;66726;52.388;9.986;2023-05-10T03:44:20;100066.91;;;12.91;59.32
77583;BME280;66726;52.388;9.986;2023-05-10T03:46:52;100062.28;;;12.85;60.27
77583;BME280;66726;52.388;9.986;2023-05-10T03:49:23;100064.03;;;12.92;59.62
77583;BME280;66726;52.388;9.986;2023-05-10T03:51:55;100061.16;;;12.94;60.09
77583;BME280;66726;52.388;9.986;2023-05-10T03:54:28;100059.09;;;12.96;61.34
77583;BME280;66726;52.388;9.986;2023-05-10T03:57:00;100053.50;;;12.91;61.28
77583;BME280;66726;52.388;9.986;2023-05-10T03:59:33;100051.38;;;12.86;62.15
77583;BME280;66726;52.388;9.986;2023-05-10T04:02:05;100058.41;;;12.87;62.38
77583;BME280;66726;52.388;9.986;2023-05-10T04:04:37;100054.06;;;12.86;62.52
77583;BME280;66726;52.388;9.986;2023-05-10T04:07:09;100049.91;;;12.84;62.14
77583;BME280;66726;52.388;9.986;2023-05-10T04:09:42;100054.00;;;12.80;62.39
77583;BME280;66726;52.388;9.986;2023-05-10T04:12:14;100047.78;;;12.79;61.93
77583;BME280;66726;52.388;9.986;2023-05-10T04:14:46;100053.16;;;12.79;61.75
77583;BME280;66726;52.388;9.986;2023-05-10T04:17:18;100050.75;;;12.84;62.76
77583;BME280;66726;52.388;9.986;2023-05-10T04:19:49;100051.63;;;12.70;62.38
77583;BME280;66726;52.388;9.986;2023-05-10T04:22:23;100055.25;;;12.62;62.88
77583;BME280;66726;52.388;9.986;2023-05-10T04:24:56;100057.28;;;12.60;62.47
77583;BME280;66726;52.388;9.986;2023-05-10T04:27:28;100059.22;;;12.66;63.73
77583;BME280;66726;52.388;9.986;2023-05-10T04:30:00;100059.22;;;12.66;64.14
77583;BME280;66726;52.388;9.986;2023-05-10T04:32:31;100066.75;;;12.56;64.14
77583;BME280;66726;52.388;9.986;2023-05-10T04:35:03;100058.84;;;12.69;63.89
77583;BME280;66726;52.388;9.986;2023-05-10T04:37:35;100060.31;;;12.72;64.40
77583;BME280;66726;52.388;9.986;2023-05-10T04:40:12;100063.44;;;12.76;65.38
77583;BME280;66726;52.388;9.986;2023-05-10T04:42:45;100060.63;;;12.62;65.37
77583;BME280;66726;52.388;9.986;2023-05-10T04:45:17;100067.06;;;12.68;66.51
77583;BME280;66726;52.388;9.986;2023-05-10T04:47:49;100062.16;;;12.71;67.67
77583;BME280;66726;52.388;9.986;2023-05-10T04:50:20;100061.72;;;12.68;67.01
77583;BME280;66726;52.388;9.986;2023-05-10T04:52:52;100064.22;;;12.69;67.54
77583;BME280;66726;52.388;9.986;2023-05-10T04:55:25;100066.91;;;12.69;68.04
77583;BME280;66726;52.388;9.986;2023-05-10T04:57:57;100059.69;;;12.70;68.17
77583;BME280;66726;52.388;9.986;2023-05-10T05:00:29;100064.97;;;12.63;68.77
77583;BME280;66726;52.388;9.986;2023-05-10T05:03:01;100077.38;;;12.64;69.00
77583;BME280;66726;52.388;9.986;2023-05-10T05:05:33;100089.16;;;12.63;69.09
77583;BME280;66726;52.388;9.986;2023-05-10T05:08:05;100088.09;;;12.64;69.88
77583;BME280;66726;52.388;9.986;2023-05-10T05:10:38;100088.09;;;12.64;69.94
77583;BME280;66726;52.388;9.986;2023-05-10T05:13:12;100088.88;;;12.58;70.64
77583;BME280;66726;52.388;9.986;2023-05-10T05:15:44;100089.03;;;12.57;70.32
77583;BME280;66726;52.388;9.986;2023-05-10T05:18:15;100096.69;;;12.53;70.69
77583;BME280;66726;52.388;9.986;2023-05-10T05:20:47;100105.75;;;12.52;69.95
77583;BME280;66726;52.388;9.986;2023-05-10T05:23:19;100114.19;;;12.49;70.49
77583;BME280;66726;52.388;9.986;2023-05-10T05:25:56;100119.56;;;12.35;70.62
77583;BME280;66726;52.388;9.986;2023-05-10T05:28:28;100125.66;;;12.43;70.35
77583;BME280;66726;52.388;9.986;2023-05-10T05:31:03;100122.63;;;12.46;72.62
77583;BME280;66726;52.388;9.986;2023-05-10T05:33:35;100118.88;;;12.47;72.46
77583;BME280;66726;52.388;9.986;2023-05-10T05:36:09;100121.41;;;12.49;72.18
77583;BME280;66726;52.388;9.986;2023-05-10T05:38:40;100125.56;;;12.51;73.09
77583;BME280;66726;52.388;9.986;2023-05-10T05:41:14;100127.22;;;12.52;73.61
77583;BME280;66726;52.388;9.986;2023-05-10T05:43:46;100124.53;;;12.52;73.51
77583;BME280;66726;52.388;9.986;2023-05-10T05:46:18;100131.59;;;12.53;74.83
77583;BME280;66726;52.388;9.986;2023-05-10T05:48:50;100133.59;;;12.51;74.92
77583;BME280;66726;52.388;9.986;2023-05-10T05:51:22;100130.09;;;12.51;74.86
77583;BME280;66726;52.388;9.986;2023-05-10T05:53:53;100138.44;;;12.56;74.87
77583;BME280;66726;52.388;9.986;2023-05-10T05:56:27;100137.97;;;12.52;75.62
77583;BME280;66726;52.388;9.986;2023-05-10T05:58:58;100134.28;;;12.53;76.32
77583;BME280;66726;52.388;9.986;2023-05-10T06:01:30;100140.91;;;12.57;76.23
77583;BME280;66726;52.388;9.986;2023-05-10T06:04:02;100143.34;;;12.52;76.92
77583;BME280;66726;52.388;9.986;2023-05-10T06:06:34;100148.97;;;12.57;76.67
77583;BME280;66726;52.388;9.986;2023-05-10T06:09:06;100158.06;;;12.56;76.11
77583;BME280;66726;52.388;9.986;2023-05-10T06:11:39;100169.44;;;12.58;78.16
77583;BME280;66726;52.388;9.986;2023-05-10T06:14:11;100167.75;;;12.57;78.78
77583;BME280;66726;52.388;9.986;2023-05-10T06:16:43;100162.22;;;12.59;77.85
77583;BME280;66726;52.388;9.986;2023-05-10T06:19:15;100176.09;;;12.62;78.41
77583;BME280;66726;52.388;9.986;2023-05-10T06:21:47;100173.03;;;12.65;79.17
77583;BME280;66726;52.388;9.986;2023-05-10T06:24:19;100177.41;;;12.66;79.31
77583;BME280;66726;52.388;9.986;2023-05-10T06:26:53;100166.28;;;12.69;79.12
77583;BME280;66726;52.388;9.986;2023-05-10T06:29:25;100177.03;;;12.69;79.76
77583;BME280;66726;52.388;9.986;2023-05-10T06:31:58;100176.63;;;12.73;80.55
77583;BME280;66726;52.388;9.986;2023-05-10T06:34:30;100165.91;;;12.73;81.16
77583;BME280;66726;52.388;9.986;2023-05-10T06:37:02;100172.09;;;12.73;80.86
77583;BME280;66726;52.388;9.986;2023-05-10T06:39:34;100172.56;;;12.77;81.80
77583;BME280;66726;52.388;9.986;2023-05-10T06:42:08;100181.25;;;12.79;80.79
77583;BME280;66726;52.388;9.986;2023-05-10T06:44:40;100185.63;;;12.80;80.86
77583;BME280;66726;52.388;9.986;2023-05-10T06:47:12;100184.78;;;12.79;80.93
77583;BME280;66726;52.388;9.986;2023-05-10T06:49:44;100186.44;;;12.80;80.98
77583;BME280;66726;52.388;9.986;2023-05-10T06:52:16;100181.09;;;12.80;82.10
77583;BME280;66726;52.388;9.986;2023-05-10T06:54:48;100188.22;;;12.73;82.42
77583;BME280;66726;52.388;9.986;2023-05-10T06:57:21;100185.31;;;12.75;82.43
77583;BME280;66726;52.388;9.986;2023-05-10T07:00:01;100186.09;;;12.68;84.62
77583;BME280;66726;52.388;9.986;2023-05-10T07:02:34;100187.59;;;12.56;84.42
77583;BME280;66726;52.388;9.986;2023-05-10T07:05:06;100195.53;;;12.64;84.40
77583;BME280;66726;52.388;9.986;2023-05-10T07:07:38;100194.78;;;12.70;84.32
77583;BME280;66726;52.388;9.986;2023-05-10T07:10:13;100199.34;;;12.70;84.17
77583;BME280;66726;52.388;9.986;2023-05-10T07:12:46;100198.13;;;12.73;84.06
77583;BME280;66726;52.388;9.986;2023-05-10T07:15:18;100197.75;;;12.76;83.91
77583;BME280;66726;52.388;9.986;2023-05-10T07:17:50;100206.44;;;12.78;84.58
77583;BME280;66726;52.388;9.986;2023-05-10T07:20:22;100208.94;;;12.79;84.35
77583;BME280;66726;52.388;9.986;2023-05-10T07:22:54;100207.75;;;12.82;84.19
77583;BME280;66726;52.388;9.986;2023-05-10T07:25:26;100212.72;;;12.85;84.53
77583;BME280;66726;52.388;9.986;2023-05-10T07:27:59;100216.72;;;12.89;85.21
77583;BME280;66726;52.388;9.986;2023-05-10T07:30:31;100217.38;;;12.91;83.80
77583;BME280;66726;52.388;9.986;2023-05-10T07:33:03;100216.78;;;12.95;84.28
77583;BME280;66726;52.388;9.986;2023-05-10T07:35:35;100223.66;;;12.98;84.45
77583;BME280;66726;52.388;9.986;2023-05-10T07:38:07;100223.47;;;12.99;85.32
77583;BME280;66726;52.388;9.986;2023-05-10T07:40:39;100221.22;;;13.03;84.38
77583;BME280;66726;52.388;9.986;2023-05-10T07:43:12;100222.25;;;13.02;85.37
77583;BME280;66726;52.388;9.986;2023-05-10T07:45:45;100222.06;;;13.03;85.97
77583;BME280;66726;52.388;9.986;2023-05-10T07:48:19;100225.97;;;13.01;87.08
77583;BME280;66726;52.388;9.986;2023-05-10T07:50:51;100224.94;;;13.02;86.46
77583;BME280;66726;52.388;9.986;2023-05-10T07:53:25;100225.00;;;13.08;86.53
77583;BME280;66726;52.388;9.986;2023-05-10T07:55:58;100225.00;;;13.08;88.34
77583;BME280;66726;52.388;9.986;2023-05-10T07:58:31;100229.56;;;13.08;87.04
77583;BME280;66726;52.388;9.986;2023-05-10T08:01:05;100238.66;;;13.07;87.34
77583;BME280;66726;52.388;9.986;2023-05-10T08:03:37;100234.13;;;12.93;88.45
77583;BME280;66726;52.388;9.986;2023-05-10T08:06:09;100235.44;;;12.97;88.80
77583;BME280;66726;52.388;9.986;2023-05-10T08:08:43;100246.72;;;12.92;89.07
77583;BME280;66726;52.388;9.986;2023-05-10T08:11:16;100249.25;;;12.94;89.83
77583;BME280;66726;52.388;9.986;2023-05-10T08:13:50;100250.53;;;12.98;89.13
77583;BME280;66726;52.388;9.986;2023-05-10T08:16:24;100263.31;;;12.96;90.26
77583;BME280;66726;52.388;9.986;2023-05-10T08:18:56;100259.22;;;13.00;89.73
77583;BME280;66726;52.388;9.986;2023-05-10T08:21:28;100256.25;;;12.95;90.65
77583;BME280;66726;52.388;9.986;2023-05-10T08:24:01;100274.06;;;12.96;91.10
77583;BME280;66726;52.388;9.986;2023-05-10T08:26:35;100268.31;;;12.99;91.24
77583;BME280;66726;52.388;9.986;2023-05-10T08:29:08;100276.81;;;13.02;91.76
77583;BME280;66726;52.388;9.986;2023-05-10T08:31:40;100275.28;;;12.93;92.76
77583;BME280;66726;52.388;9.986;2023-05-10T08:34:12;100278.59;;;12.95;93.27
77583;BME280;66726;52.388;9.986;2023-05-10T08:36:44;100278.13;;;12.92;92.41
77583;BME280;66726;52.388;9.986;2023-05-10T08:39:17;100286.19;;;12.92;93.81
77583;BME280;66726;52.388;9.986;2023-05-10T08:42:04;100290.19;;;12.96;93.88
77583;BME280;66726;52.388;9.986;2023-05-10T08:44:38;100290.19;;;12.96;94.73
77583;BME280;66726;52.388;9.986;2023-05-10T08:47:10;100290.84;;;12.98;94.54
77583;BME280;66726;52.388;9.986;2023-05-10T08:49:48;100293.97;;;13.01;93.82
77583;BME280;66726;52.388;9.986;2023-05-10T08:52:26;100295.63;;;13.02;94.05
77583;BME280;66726;52.388;9.986;2023-05-10T08:55:00;100303.16;;;13.07;94.47
77583;BME280;66726;52.388;9.986;2023-05-10T08:57:34;100302.44;;;13.13;94.46
77583;BME280;66726;52.388;9.986;2023-05-10T09:00:11;100306.66;;;13.22;93.56
77583;BME280;66726;52.388;9.986;2023-05-10T09:02:44;100304.72;;;13.31;94.82
77583;BME280;66726;52.388;9.986;2023-05-10T09:05:18;100311.56;;;13.33;94.24
77583;BME280;66726;52.388;9.986;2023-05-10T09:07:52;100314.34;;;13.40;94.29
77583;BME280;66726;52.388;9.986;2023-05-10T09:10:27;100317.69;;;13.42;93.30
77583;BME280;66726;52.388;9.986;2023-05-10T09:13:01;100330.75;;;13.45;92.72
77583;BME280;66726;52.388;9.986;2023-05-10T09:15:35;100331.00;;;13.50;93.14
77583;BME280;66726;52.388;9.986;2023-05-10T09:18:08;100335.38;;;13.51;92.38
77583;BME280;66726;52.388;9.986;2023-05-10T09:20:40;100333.75;;;13.56;92.23
77583;BME280;66726;52.388;9.986;2023-05-10T09:23:12;100337.13;;;13.58;92.74
77583;BME280;66726;52.388;9.986;2023-05-10T09:25:45;100341.50;;;13.59;91.57
77583;BME280;66726;52.388;9.986;2023-05-10T09:28:19;100346.47;;;13.62;91.82
77583;BME280;66726;52.388;9.986;2023-05-10T09:30:56;100349.19;;;13.62;92.33
77583;BME280;66726;52.388;9.986;2023-05-10T09:33:29;100353.50;;;13.63;91.94
77583;BME280;66726;52.388;9.986;2023-05-10T09:36:17;100351.88;;;13.62;92.18
77583;BME280;66726;52.388;9.986;2023-05-10T09:38:51;100360.09;;;13.61;92.72
77583;BME280;66726;52.388;9.986;2023-05-10T09:41:25;100358.34;;;13.53;92.86
77583;BME280;66726;52.388;9.986;2023-05-10T09:43:59;100366.81;;;13.50;92.58
77583;BME280;66726;52.388;9.986;2023-05-10T09:46:36;100372.94;;;13.44;91.74
77583;BME280;66726;52.388;9.986;2023-05-10T09:49:09;100368.56;;;13.43;91.48
77583;BME280;66726;52.388;9.986;2023-05-10T09:51:45;100374.34;;;13.40;91.87
77583;BME280;66726;52.388;9.986;2023-05-10T09:54:19;100376.66;;;13.43;91.47
77583;BME280;66726;52.388;9.986;2023-05-10T09:56:51;100394.44;;;13.44;91.86
77583;BME280;66726;52.388;9.986;2023-05-10T09:59:24;100386.31;;;13.38;91.35
77583;BME280;66726;52.388;9.986;2023-05-10T10:02:00;100398.06;;;13.37;91.35
77583;BME280;66726;52.388;9.986;2023-05-10T10:04:32;100396.97;;;13.31;89.59
77583;BME280;66726;52.388;9.986;2023-05-10T10:07:10;100397.22;;;13.36;91.26
77583;BME280;66726;52.388;9.986;2023-05-10T10:09:42;100396.78;;;13.33;90.88
77583;BME280;66726;52.388;9.986;2023-05-10T10:12:14;100399.19;;;13.42;90.91
77583;BME280;66726;52.388;9.986;2023-05-10T10:14:52;100400.47;;;13.46;91.00
77583;BME280;66726;52.388;9.986;2023-05-10T10:17:29;100405.13;;;13.52;90.62
77583;BME280;66726;52.388;9.986;2023-05-10T10:20:04;100408.91;;;13.58;90.16
77583;BME280;66726;52.388;9.986;2023-05-10T10:22:43;100412.22;;;13.60;90.16
77583;BME280;66726;52.388;9.986;2023-05-10T10:25:18;100412.31;;;13.66;90.16
77583;BME280;66726;52.388;9.986;2023-05-10T10:28:08;100416.28;;;13.70;89.30
77583;BME280;66726;52.388;9.986;2023-05-10T10:30:48;100414.91;;;13.75;89.69
77583;BME280;66726;52.388;9.986;2023-05-10T10:33:39;100414.13;;;13.81;89.04
77583;BME280;66726;52.388;9.986;2023-05-10T10:36:17;100419.34;;;13.82;89.33
77583;BME280;66726;52.388;9.986;2023-05-10T10:39:01;100414.59;;;13.84;89.49
77583;BME280;66726;52.388;9.986;2023-05-10T10:41:49;100417.50;;;13.83;89.88
77583;BME280;66726;52.388;9.986;2023-05-10T10:44:35;100419.81;;;13.86;90.23
77583;BME280;66726;52.388;9.986;2023-05-10T10:47:25;100420.06;;;13.91;90.64
77583;BME280;66726;52.388;9.986;2023-05-10T10:50:10;100419.69;;;13.94;90.05
77583;BME280;66726;52.388;9.986;2023-05-10T10:52:45;100421.34;;;13.95;89.53
77583;BME280;66726;52.388;9.986;2023-05-10T10:55:21;100412.88;;;13.98;89.28
77583;BME280;66726;52.388;9.986;2023-05-10T10:57:56;100421.72;;;13.92;88.16
77583;BME280;66726;52.388;9.986;2023-05-10T11:00:33;100424.63;;;13.90;87.77
77583;BME280;66726;52.388;9.986;2023-05-10T11:03:09;100425.72;;;13.96;87.72
77583;BME280;66726;52.388;9.986;2023-05-10T11:05:47;100420.41;;;14.02;88.23
77583;BME280;66726;52.388;9.986;2023-05-10T11:08:25;100419.84;;;14.07;88.15
77583;BME280;66726;52.388;9.986;2023-05-10T11:11:07;100426.50;;;14.11;86.90
77583;BME280;66726;52.388;9.986;2023-05-10T11:13:43;100422.84;;;14.18;87.85
77583;BME280;66726;52.388;9.986;2023-05-10T11:16:23;100425.75;;;14.17;86.47
77583;BME280;66726;52.388;9.986;2023-05-10T11:19:01;100425.81;;;14.23;86.46
77583;BME280;66726;52.388;9.986;2023-05-10T11:21:46;100428.56;;;14.30;86.25
77583;BME280;66726;52.388;9.986;2023-05-10T11:24:22;100433.22;;;14.36;85.52
77583;BME280;66726;52.388;9.986;2023-05-10T11:26:55;100426.44;;;14.40;85.37
77583;BME280;66726;52.388;9.986;2023-05-10T11:29:27;100428.34;;;14.46;85.22
77583;BME280;66726;52.388;9.986;2023-05-10T11:32:02;100433.59;;;14.54;85.91
77583;BME280;66726;52.388;9.986;2023-05-10T11:34:35;100429.91;;;14.55;84.79
77583;BME280;66726;52.388;9.986;2023-05-10T11:37:08;100432.84;;;14.60;84.15
77583;BME280;66726;52.388;9.986;2023-05-10T11:39:45;100428.06;;;14.62;83.60
77583;BME280;66726;52.388;9.986;2023-05-10T11:42:17;100432.44;;;14.63;83.06
77583;BME280;66726;52.388;9.986;2023-05-10T11:44:49;100433.34;;;14.70;83.07
77583;BME280;66726;52.388;9.986;2023-05-10T11:47:21;100434.84;;;14.80;83.40
77583;BME280;66726;52.388;9.986;2023-05-10T11:49:56;100433.44;;;14.84;83.31
77583;BME280;66726;52.388;9.986;2023-05-10T11:52:34;100433.47;;;14.90;82.33
77583;BME280;66726;52.388;9.986;2023-05-10T11:55:08;100435.59;;;14.95;81.87
77583;BME280;66726;52.388;9.986;2023-05-10T11:57:40;100435.66;;;15.01;81.13
77583;BME280;66726;52.388;9.986;2023-05-10T12:00:14;100442.53;;;15.10;81.68
77583;BME280;66726;52.388;9.986;2023-05-10T12:02:46;100441.53;;;15.11;79.38
77583;BME280;66726;52.388;9.986;2023-05-10T12:05:19;100440.69;;;15.11;79.50
77583;BME280;66726;52.388;9.986;2023-05-10T12:07:52;100443.66;;;15.16;78.81
77583;BME280;66726;52.388;9.986;2023-05-10T12:10:29;100442.00;;;15.21;80.03
77583;BME280;66726;52.388;9.986;2023-05-10T12:13:06;100444.13;;;15.26;79.21
77583;BME280;66726;52.388;9.986;2023-05-10T12:15:41;100439.34;;;15.28;77.90
77583;BME280;66726;52.388;9.986;2023-05-10T12:18:14;100447.53;;;15.41;78.26
77583;BME280;66726;52.388;9.986;2023-05-10T12:20:46;100440.50;;;15.47;77.28
77583;BME280;66726;52.388;9.986;2023-05-10T12:23:19;100445.97;;;15.53;77.75
77583;BME280;66726;52.388;9.986;2023-05-10T12:25:51;100444.38;;;15.65;78.18
77583;BME280;66726;52.388;9.986;2023-05-10T12:28:24;100445.47;;;15.78;76.93
77583;BME280;66726;52.388;9.986;2023-05-10T12:30:59;100447.97;;;15.86;75.24
77583;BME280;66726;52.388;9.986;2023-05-10T12:33:36;100437.25;;;15.99;74.55
77583;BME280;66726;52.388;9.986;2023-05-10T12:36:13;100441.63;;;16.06;76.11
77583;BME280;66726;52.388;9.986;2023-05-10T12:38:47;100444.16;;;16.21;75.28
77583;BME280;66726;52.388;9.986;2023-05-10T12:41:21;100446.03;;;16.20;73.58
77583;BME280;66726;52.388;9.986;2023-05-10T12:43:52;100453.72;;;16.30;75.88
77583;BME280;66726;52.388;9.986;2023-05-10T12:46:24;100450.84;;;16.32;74.77
77583;BME280;66726;52.388;9.986;2023-05-10T12:48:58;100452.72;;;16.38;74.80
77583;BME280;66726;52.388;9.986;2023-05-10T12:51:39;100448.81;;;16.47;76.12
77583;BME280;66726;52.388;9.986;2023-05-10T12:54:12;100460.66;;;16.52;75.95
77583;BME280;66726;52.388;9.986;2023-05-10T12:56:45;100458.81;;;16.59;75.52
77583;BME280;66726;52.388;9.986;2023-05-10T12:59:17;100465.50;;;16.63;71.80
77583;BME280;66726;52.388;9.986;2023-05-10T13:01:49;100469.22;;;16.62;69.88
77583;BME280;66726;52.388;9.986;2023-05-10T13:04:21;100471.31;;;16.60;71.08
77583;BME280;66726;52.388;9.986;2023-05-10T13:06:52;100464.22;;;16.59;73.33
77583;BME280;66726;52.388;9.986;2023-05-10T13:09:28;100470.47;;;16.60;73.00
77583;BME280;66726;52.388;9.986;2023-05-10T13:12:00;100474.00;;;16.60;73.37
77583;BME280;66726;52.388;9.986;2023-05-10T13:14:33;100475.03;;;16.59;73.99
77583;BME280;66726;52.388;9.986;2023-05-10T13:17:05;100470.88;;;16.57;73.82
77583;BME280;66726;52.388;9.986;2023-05-10T13:19:37;100476.06;;;16.58;73.01
77583;BME280;66726;52.388;9.986;2023-05-10T13:22:09;100471.31;;;16.60;72.93
77583;BME280;66726;52.388;9.986;2023-05-10T13:24:42;100473.19;;;16.60;73.31
77583;BME280;66726;52.388;9.986;2023-05-10T13:27:14;100465.06;;;16.60;72.56
77583;BME280;66726;52.388;9.986;2023-05-10T13:29:46;100468.75;;;16.52;71.93
77583;BME280;66726;52.388;9.986;2023-05-10T13:32:18;100470.47;;;16.60;73.21
77583;BME280;66726;52.388;9.986;2023-05-10T13:34:51;100472.75;;;16.56;73.26